sensor_id;sensor_type;location;lat;lon;timestamp;P1;durP1;ratioP1;P2;durP2;ratioP2
16673;SDS011;8450;52.654;10.326;2022-09-28T07:04:36;10.17;;;9.17;;
16673;SDS011;8450;52.654;10.326;2022-09-28T07:07:31;10.50;;;9.40;;
16673;SDS011;8450;52.654;10.326;2022-09-28T07:10:17;10.90;;;9.80;;
16673;SDS011;8450;52.654;10.326;2022-09-28T07:13:02;11.80;;;9.60;;
16673;SDS011;8450;52.654;10.326;2022-09-28T07:15:38;10.03;;;8.10;;
16673;SDS011;8450;52.654;10.326;2022-09-28T07:18:05;8.87;;;8.00;;
16673;SDS011;8450;52.654;10.326;2022-09-28T07:20:32;8.80;;;8.00;;
16673;SDS011;8450;52.654;10.326;2022-09-28T07:23:00;8.17;;;7.37;;
16673;SDS011;8450;52.654;10.326;2022-09-28T07:25:33;9.73;;;8.70;;
16673;SDS011;8450;52.654;10.326;2022-09-28T07:28:23;9.40;;;8.50;;
16673;SDS011;8450;52.654;10.326;2022-09-28T07:40:49;9.97;;;8.97;;
16673;SDS011;8450;52.654;10.326;2022-09-28T07:43:40;10.57;;;8.87;;
16673;SDS011;8450;52.654;10.326;2022-09-28T07:46:07;8.93;;;8.10;;
16673;SDS011;8450;52.654;10.326;2022-09-28T07:48:39;10.13;;;8.57;;
16673;SDS011;8450;52.654;10.326;2022-09-28T07:51:14;9.87;;;8.73;;
16673;SDS011;8450;52.654;10.326;2022-09-28T07:53:54;8.80;;;7.90;;
16673;SDS011;8450;52.654;10.326;2022-09-28T07:56:38;9.70;;;8.80;;
16673;SDS011;8450;52.654;10.326;2022-09-28T07:59:13;8.63;;;7.80;;
16673;SDS011;8450;52.654;10.326;2022-09-28T08:02:01;8.73;;;7.70;;
16673;SDS011;8450;52.654;10.326;2022-09-28T08:04:27;7.73;;;6.93;;
16673;SDS011;8450;52.654;10.326;2022-09-28T08:06:54;8.17;;;7.37;;
16673;SDS011;8450;52.654;10.326;2022-09-28T08:09:20;9.60;;;8.13;;
16673;SDS011;8450;52.654;10.326;2022-09-28T08:12:04;8.70;;;7.43;;
16673;SDS011;8450;52.654;10.326;2022-09-28T08:14:39;7.27;;;6.67;;
16673;SDS011;8450;52.654;10.326;2022-09-28T08:17:23;7.63;;;6.93;;
16673;SDS011;8450;52.654;10.326;2022-09-28T08:19:53;8.70;;;7.90;;
16673;SDS011;8450;52.654;10.326;2022-09-28T08:22:37;9.23;;;7.93;;
16673;SDS011;8450;52.654;10.326;2022-09-28T08:25:04;8.67;;;7.80;;
16673;SDS011;8450;52.654;10.326;2022-09-28T08:27:30;8.27;;;7.47;;
16673;SDS011;8450;52.654;10.326;2022-09-28T08:29:56;8.90;;;7.97;;
16673;SDS011;8450;52.654;10.326;2022-09-28T08:32:45;7.23;;;6.63;;
16673;SDS011;8450;52.654;10.326;2022-09-28T08:35:42;8.13;;;7.43;;
16673;SDS011;8450;52.654;10.326;2022-09-28T08:38:24;7.73;;;7.03;;
16673;SDS011;8450;52.654;10.326;2022-09-28T08:41:17;10.53;;;8.37;;
16673;SDS011;8450;52.654;10.326;2022-09-28T08:47:06;7.83;;;7.13;;
16673;SDS011;8450;52.654;10.326;2022-09-28T08:50:17;7.53;;;6.83;;
16673;SDS011;8450;52.654;10.326;2022-09-28T08:53:23;9.53;;;7.27;;
16673;SDS011;8450;52.654;10.326;2022-09-28T08:56:25;8.43;;;7.70;;
16673;SDS011;8450;52.654;10.326;2022-09-28T08:58:57;9.77;;;7.80;;
16673;SDS011;8450;52.654;10.326;2022-09-28T09:01:27;8.43;;;7.63;;
16673;SDS011;8450;52.654;10.326;2022-09-28T09:03:59;8.90;;;8.10;;
16673;SDS011;8450;52.654;10.326;2022-09-28T09:15:10;8.20;;;7.40;;
16673;SDS011;8450;52.654;10.326;2022-09-28T09:31:47;6.60;;;6.00;;
16673;SDS011;8450;52.654;10.326;2022-09-28T09:40:41;7.50;;;6.27;;
16673;SDS011;8450;52.654;10.326;2022-09-28T09:43:49;6.73;;;6.13;;
16673;SDS011;8450;52.654;10.326;2022-09-28T09:49:48;6.40;;;5.80;;
16673;SDS011;8450;52.654;10.326;2022-09-28T09:55:02;5.10;;;4.70;;
16673;SDS011;8450;52.654;10.326;2022-09-28T09:57:50;5.57;;;5.07;;
16673;SDS011;8450;52.654;10.326;2022-09-28T10:00:42;4.90;;;4.50;;
16673;SDS011;8450;52.654;10.326;2022-09-28T10:03:31;5.70;;;4.50;;
16673;SDS011;8450;52.654;10.326;2022-09-28T10:06:13;4.50;;;4.10;;
16673;SDS011;8450;52.654;10.326;2022-09-28T10:08:47;5.03;;;4.00;;
16673;SDS011;8450;52.654;10.326;2022-09-28T10:11:19;4.30;;;4.00;;
16673;SDS011;8450;52.654;10.326;2022-09-28T10:13:53;5.20;;;4.50;;
16673;SDS011;8450;52.654;10.326;2022-09-28T10:16:37;4.87;;;4.47;;
16673;SDS011;8450;52.654;10.326;2022-09-28T10:19:11;4.37;;;4.00;;
16673;SDS011;8450;52.654;10.326;2022-09-28T10:21:56;4.53;;;4.13;;
16673;SDS011;8450;52.654;10.326;2022-09-28T10:24:28;4.30;;;3.80;;
16673;SDS011;8450;52.654;10.326;2022-09-28T10:27:18;4.20;;;3.80;;
16673;SDS011;8450;52.654;10.326;2022-09-28T10:29:49;4.07;;;3.67;;
16673;SDS011;8450;52.654;10.326;2022-09-28T10:32:38;3.93;;;3.63;;
16673;SDS011;8450;52.654;10.326;2022-09-28T10:35:27;4.20;;;3.90;;
16673;SDS011;8450;52.654;10.326;2022-09-28T10:37:57;3.70;;;3.33;;
16673;SDS011;8450;52.654;10.326;2022-09-28T10:40:58;4.43;;;4.10;;
16673;SDS011;8450;52.654;10.326;2022-09-28T10:43:48;3.87;;;3.57;;
16673;SDS011;8450;52.654;10.326;2022-09-28T10:46:59;3.33;;;3.13;;
16673;SDS011;8450;52.654;10.326;2022-09-28T10:49:30;3.47;;;3.27;;
16673;SDS011;8450;52.654;10.326;2022-09-28T10:52:04;3.87;;;3.57;;
16673;SDS011;8450;52.654;10.326;2022-09-28T10:54:53;4.07;;;3.77;;
16673;SDS011;8450;52.654;10.326;2022-09-28T10:57:26;3.50;;;3.20;;
16673;SDS011;8450;52.654;10.326;2022-09-28T11:00:12;3.30;;;3.10;;
16673;SDS011;8450;52.654;10.326;2022-09-28T11:03:19;3.80;;;3.50;;
16673;SDS011;8450;52.654;10.326;2022-09-28T11:05:55;3.93;;;3.10;;
16673;SDS011;8450;52.654;10.326;2022-09-28T11:08:37;3.10;;;2.90;;
16673;SDS011;8450;52.654;10.326;2022-09-28T11:11:09;3.47;;;2.90;;
16673;SDS011;8450;52.654;10.326;2022-09-28T11:16:32;4.13;;;3.53;;
16673;SDS011;8450;52.654;10.326;2022-09-28T11:19:05;3.50;;;3.20;;
16673;SDS011;8450;52.654;10.326;2022-09-28T11:21:43;2.87;;;2.67;;
16673;SDS011;8450;52.654;10.326;2022-09-28T11:26:41;2.40;;;2.20;;
16673;SDS011;8450;52.654;10.326;2022-09-28T11:29:22;2.67;;;2.13;;
16673;SDS011;8450;52.654;10.326;2022-09-28T11:32:21;2.13;;;1.93;;
16673;SDS011;8450;52.654;10.326;2022-09-28T11:35:18;2.37;;;2.17;;
16673;SDS011;8450;52.654;10.326;2022-09-28T11:49:32;2.40;;;2.20;;
16673;SDS011;8450;52.654;10.326;2022-09-28T11:55:13;2.47;;;2.27;;
16673;SDS011;8450;52.654;10.326;2022-09-28T11:57:45;2.47;;;2.27;;
16673;SDS011;8450;52.654;10.326;2022-09-28T12:00:18;2.70;;;2.43;;
16673;SDS011;8450;52.654;10.326;2022-09-28T12:05:29;3.23;;;2.93;;
16673;SDS011;8450;52.654;10.326;2022-09-28T12:08:05;3.87;;;3.57;;
16673;SDS011;8450;52.654;10.326;2022-09-28T12:14:13;3.70;;;3.30;;
16673;SDS011;8450;52.654;10.326;2022-09-28T12:16:48;3.37;;;3.13;;
16673;SDS011;8450;52.654;10.326;2022-09-28T12:19:21;2.77;;;2.57;;
16673;SDS011;8450;52.654;10.326;2022-09-28T12:21:55;2.87;;;2.67;;
16673;SDS011;8450;52.654;10.326;2022-09-28T12:27:11;6.80;;;6.10;;
16673;SDS011;8450;52.654;10.326;2022-09-28T12:29:53;13.07;;;10.67;;
16673;SDS011;8450;52.654;10.326;2022-09-28T12:32:25;25.23;;;18.60;;
16673;SDS011;8450;52.654;10.326;2022-09-28T12:34:56;22.53;;;17.67;;
16673;SDS011;8450;52.654;10.326;2022-09-28T12:42:51;20.53;;;16.60;;
16673;SDS011;8450;52.654;10.326;2022-09-28T12:50:59;11.67;;;9.80;;
16673;SDS011;8450;52.654;10.326;2022-09-28T12:53:53;10.93;;;9.10;;
16673;SDS011;8450;52.654;10.326;2022-09-28T12:56:51;10.13;;;8.70;;
16673;SDS011;8450;52.654;10.326;2022-09-28T12:59:31;7.73;;;6.97;;
16673;SDS011;8450;52.654;10.326;2022-09-28T13:10:53;6.53;;;5.93;;
16673;SDS011;8450;52.654;10.326;2022-09-28T13:13:33;7.37;;;6.70;;
16673;SDS011;8450;52.654;10.326;2022-09-28T13:16:38;8.93;;;7.90;;
16673;SDS011;8450;52.654;10.326;2022-09-28T13:19:15;7.77;;;7.00;;
16673;SDS011;8450;52.654;10.326;2022-09-28T13:21:46;7.97;;;7.27;;
16673;SDS011;8450;52.654;10.326;2022-09-28T13:24:27;8.80;;;8.00;;
16673;SDS011;8450;52.654;10.326;2022-09-28T13:26:58;5.97;;;5.47;;
16673;SDS011;8450;52.654;10.326;2022-09-28T13:29:29;6.10;;;5.60;;
16673;SDS011;8450;52.654;10.326;2022-09-28T13:31:58;5.33;;;4.80;;
16673;SDS011;8450;52.654;10.326;2022-09-28T13:34:29;6.37;;;5.77;;
16673;SDS011;8450;52.654;10.326;2022-09-28T13:39:45;4.27;;;3.87;;
16673;SDS011;8450;52.654;10.326;2022-09-28T13:45:03;4.20;;;3.90;;
16673;SDS011;8450;52.654;10.326;2022-09-28T13:59:17;6.07;;;4.40;;
16673;SDS011;8450;52.654;10.326;2022-09-28T14:04:53;4.97;;;4.50;;
16673;SDS011;8450;52.654;10.326;2022-09-28T14:10:15;5.10;;;4.60;;
16673;SDS011;8450;52.654;10.326;2022-09-28T14:12:51;4.60;;;4.20;;
16673;SDS011;8450;52.654;10.326;2022-09-28T14:20:18;4.67;;;4.27;;
16673;SDS011;8450;52.654;10.326;2022-09-28T14:22:59;4.20;;;3.90;;
16673;SDS011;8450;52.654;10.326;2022-09-28T14:25:30;3.97;;;3.67;;
16673;SDS011;8450;52.654;10.326;2022-09-28T14:28:11;3.90;;;3.60;;
16673;SDS011;8450;52.654;10.326;2022-09-28T14:31:05;4.13;;;3.73;;
16673;SDS011;8450;52.654;10.326;2022-09-28T14:33:34;4.53;;;3.63;;
16673;SDS011;8450;52.654;10.326;2022-09-28T14:36:06;3.33;;;3.03;;
16673;SDS011;8450;52.654;10.326;2022-09-28T14:39:44;4.40;;;3.97;;
16673;SDS011;8450;52.654;10.326;2022-09-28T14:42:26;3.97;;;3.40;;
16673;SDS011;8450;52.654;10.326;2022-09-28T14:47:36;4.27;;;3.50;;
16673;SDS011;8450;52.654;10.326;2022-09-28T14:50:22;4.00;;;3.70;;
16673;SDS011;8450;52.654;10.326;2022-09-28T14:52:51;3.80;;;3.50;;
16673;SDS011;8450;52.654;10.326;2022-09-28T14:55:23;3.80;;;3.50;;
16673;SDS011;8450;52.654;10.326;2022-09-28T14:57:56;5.07;;;3.47;;
16673;SDS011;8450;52.654;10.326;2022-09-28T15:00:23;3.97;;;3.10;;
16673;SDS011;8450;52.654;10.326;2022-09-28T15:02:53;3.83;;;3.40;;
16673;SDS011;8450;52.654;10.326;2022-09-28T15:05:28;3.90;;;3.60;;
16673;SDS011;8450;52.654;10.326;2022-09-28T15:07:59;3.40;;;3.00;;
16673;SDS011;8450;52.654;10.326;2022-09-28T15:10:35;4.00;;;3.63;;
16673;SDS011;8450;52.654;10.326;2022-09-28T15:13:26;3.40;;;3.10;;
16673;SDS011;8450;52.654;10.326;2022-09-28T15:15:53;3.30;;;3.00;;
16673;SDS011;8450;52.654;10.326;2022-09-28T15:18:28;4.20;;;3.17;;
16673;SDS011;8450;52.654;10.326;2022-09-28T15:27:50;13.90;;;8.70;;
16673;SDS011;8450;52.654;10.326;2022-09-28T15:32:53;5.47;;;4.27;;
16673;SDS011;8450;52.654;10.326;2022-09-28T15:35:40;5.63;;;4.23;;
16673;SDS011;8450;52.654;10.326;2022-09-28T15:38:08;4.07;;;3.60;;
16673;SDS011;8450;52.654;10.326;2022-09-28T15:40:39;4.23;;;3.57;;
16673;SDS011;8450;52.654;10.326;2022-09-28T15:43:18;3.40;;;3.10;;
16673;SDS011;8450;52.654;10.326;2022-09-28T15:46:03;4.57;;;4.03;;
16673;SDS011;8450;52.654;10.326;2022-09-28T15:48:46;3.77;;;3.47;;
16673;SDS011;8450;52.654;10.326;2022-09-28T15:51:19;3.87;;;3.47;;
16673;SDS011;8450;52.654;10.326;2022-09-28T15:53:48;3.57;;;3.10;;
16673;SDS011;8450;52.654;10.326;2022-09-28T15:56:23;3.33;;;2.80;;
16673;SDS011;8450;52.654;10.326;2022-09-28T15:59:09;2.87;;;2.67;;
16673;SDS011;8450;52.654;10.326;2022-09-28T16:01:38;3.47;;;2.80;;
16673;SDS011;8450;52.654;10.326;2022-09-28T16:12:25;2.60;;;2.40;;
16673;SDS011;8450;52.654;10.326;2022-09-28T16:14:55;3.73;;;2.10;;
16673;SDS011;8450;52.654;10.326;2022-09-28T16:17:31;2.40;;;2.20;;
16673;SDS011;8450;52.654;10.326;2022-09-28T16:20:03;2.83;;;2.37;;
16673;SDS011;8450;52.654;10.326;2022-09-28T16:22:42;2.50;;;2.30;;
16673;SDS011;8450;52.654;10.326;2022-09-28T16:25:15;3.30;;;3.00;;
16673;SDS011;8450;52.654;10.326;2022-09-28T16:27:43;2.67;;;2.47;;
